createdAt,value
2018-07-30T00:00:06.647Z,303.00
2018-07-30T00:02:39.591Z,294.50
2018-07-30T00:05:08.005Z,293.67
2018-07-30T00:07:35.208Z,323.17
2018-07-30T00:10:02.407Z,310.53
2018-07-30T00:12:29.628Z,290.97
2018-07-30T00:14:56.819Z,313.67
2018-07-30T00:17:24.023Z,302.40
2018-07-30T00:19:51.238Z,297.37
2018-07-30T00:22:18.423Z,292.33
2018-07-30T00:24:45.615Z,300.37
2018-07-30T00:27:12.815Z,293.67
2018-07-30T00:29:40.023Z,319.47
2018-07-30T00:32:07.320Z,294.97
2018-07-30T00:34:34.600Z,314.40
2018-07-30T00:37:01.804Z,300.20
2018-07-30T00:39:29.005Z,289.93
2018-07-30T00:41:56.205Z,289.53
2018-07-30T00:44:23.411Z,296.00
2018-07-30T00:46:50.625Z,287.80
2018-07-30T00:49:17.818Z,310.83
2018-07-30T00:51:45.046Z,289.53
2018-07-30T00:54:12.248Z,288.90
2018-07-30T00:56:39.462Z,293.47
2018-07-30T00:59:06.658Z,294.17
2018-07-30T01:01:44.763Z,287.67
2018-07-30T01:04:11.984Z,299.00
2018-07-30T01:06:39.219Z,296.10
2018-07-30T01:09:07.024Z,309.03
2018-07-30T01:11:34.243Z,290.20
2018-07-30T01:14:01.452Z,303.30
2018-07-30T01:16:28.767Z,302.63
2018-07-30T01:18:55.970Z,319.80
2018-07-30T01:21:23.187Z,292.37
2018-07-30T01:23:50.403Z,314.73
2018-07-30T01:26:23.271Z,297.17
2018-07-30T01:28:50.623Z,298.43
2018-07-30T01:31:17.834Z,298.23
2018-07-30T01:33:45.036Z,298.67
2018-07-30T01:36:12.258Z,297.20
2018-07-30T01:38:39.454Z,306.80
2018-07-30T01:41:06.669Z,298.10
2018-07-30T01:43:34.037Z,298.40
2018-07-30T01:46:01.821Z,290.60
2018-07-30T01:48:29.381Z,306.60
2018-07-30T01:50:56.626Z,290.33
2018-07-30T01:53:23.831Z,293.87
2018-07-30T01:55:51.056Z,282.27
2018-07-30T01:58:18.261Z,294.27
2018-07-30T02:00:45.614Z,289.90
2018-07-30T02:03:12.830Z,287.47
2018-07-30T02:05:40.012Z,292.13
2018-07-30T02:08:07.228Z,290.03
2018-07-30T02:10:34.436Z,304.70
2018-07-30T02:13:01.643Z,290.80
2018-07-30T02:15:28.859Z,301.97
2018-07-30T02:17:56.062Z,298.43
2018-07-30T02:20:23.243Z,283.30
2018-07-30T02:22:50.435Z,304.47
2018-07-30T02:25:17.639Z,287.10
2018-07-30T02:27:44.874Z,291.17
2018-07-30T02:30:12.088Z,280.83
2018-07-30T02:32:39.326Z,296.93
2018-07-30T02:35:07.237Z,282.47
2018-07-30T02:37:34.501Z,277.93
2018-07-30T02:40:01.700Z,271.03
2018-07-30T02:42:28.939Z,296.90
2018-07-30T02:44:56.276Z,271.63
2018-07-30T02:47:23.588Z,312.70
2018-07-30T02:49:50.779Z,316.70
2018-07-30T02:52:18.087Z,290.27
2018-07-30T02:54:45.275Z,283.00
2018-07-30T02:57:12.495Z,292.63
2018-07-30T02:59:39.726Z,284.73
2018-07-30T03:02:06.945Z,783.03
2018-07-30T03:04:34.191Z,270.37
2018-07-30T03:07:01.407Z,659.37
2018-07-30T03:09:28.670Z,269.43
2018-07-30T03:11:55.835Z,279.80
2018-07-30T03:14:23.071Z,790.20
2018-07-30T03:16:50.274Z,297.57
2018-07-30T03:19:17.507Z,297.73
2018-07-30T03:21:44.683Z,311.63
2018-07-30T03:24:11.894Z,248.17
2018-07-30T03:26:39.087Z,277.50
2018-07-30T03:29:06.326Z,271.60
2018-07-30T03:31:33.659Z,268.80
2018-07-30T03:34:00.871Z,286.10
2018-07-30T03:36:28.080Z,321.40
2018-07-30T03:38:55.303Z,338.13
2018-07-30T03:41:22.515Z,307.77
2018-07-30T03:43:49.728Z,313.43
2018-07-30T03:46:16.954Z,302.60
2018-07-30T03:48:44.143Z,318.47
2018-07-30T03:51:11.359Z,311.60
2018-07-30T03:53:38.567Z,333.97
2018-07-30T03:56:06.218Z,322.00
2018-07-30T03:58:35.293Z,284.70
2018-07-30T04:01:02.564Z,332.80
2018-07-30T04:03:29.783Z,350.80
2018-07-30T04:05:56.992Z,335.60
2018-07-30T04:08:24.199Z,346.97
2018-07-30T04:10:51.420Z,341.00
2018-07-30T04:13:18.622Z,335.53
2018-07-30T04:15:45.822Z,346.97
2018-07-30T04:18:13.014Z,347.20
2018-07-30T04:20:40.199Z,348.37
2018-07-30T04:23:07.390Z,321.20
2018-07-30T04:25:34.707Z,329.27
2018-07-30T04:28:01.890Z,343.47
2018-07-30T04:30:29.089Z,332.67
2018-07-30T04:32:56.321Z,319.23
2018-07-30T04:35:23.603Z,337.60
2018-07-30T04:37:50.824Z,253.20
2018-07-30T04:40:18.035Z,253.43
2018-07-30T04:42:45.271Z,284.63
2018-07-30T04:45:12.491Z,269.27
2018-07-30T04:47:39.707Z,482.17
2018-07-30T04:50:06.939Z,999.90
2018-07-30T04:52:34.211Z,999.90
2018-07-30T04:55:01.403Z,999.90
2018-07-30T04:57:28.633Z,450.70
2018-07-30T04:59:55.847Z,439.27
2018-07-30T05:02:23.075Z,421.70
2018-07-30T05:04:50.286Z,444.37
2018-07-30T05:07:17.475Z,457.97
2018-07-30T05:09:44.671Z,439.07
2018-07-30T05:12:11.860Z,466.27
2018-07-30T05:14:39.070Z,474.83
2018-07-30T05:17:06.583Z,488.47
2018-07-30T05:19:33.812Z,509.40
2018-07-30T05:22:01.012Z,549.23
2018-07-30T05:24:28.220Z,492.63
2018-07-30T05:26:55.406Z,550.30
2018-07-30T05:29:22.595Z,532.87
2018-07-30T05:31:49.811Z,526.03
2018-07-30T05:34:17.017Z,534.70
2018-07-30T05:36:44.221Z,539.23
2018-07-30T05:39:11.551Z,537.90
2018-07-30T05:41:39.235Z,535.10
2018-07-30T05:44:06.600Z,495.50
2018-07-30T05:46:33.796Z,508.73
2018-07-30T05:49:01.048Z,573.70
2018-07-30T05:51:28.236Z,564.90
2018-07-30T05:53:55.428Z,539.00
2018-07-30T05:56:22.639Z,570.60
2018-07-30T05:58:49.815Z,480.67
2018-07-30T06:01:17.025Z,558.77
2018-07-30T06:03:44.232Z,499.67
2018-07-30T06:06:11.445Z,430.63
2018-07-30T06:08:38.667Z,426.57
2018-07-30T06:11:05.888Z,418.70
2018-07-30T06:13:33.119Z,407.30
2018-07-30T06:16:00.312Z,394.33
2018-07-30T06:18:27.667Z,380.70
2018-07-30T06:20:54.892Z,386.13
2018-07-30T06:23:22.086Z,409.27
2018-07-30T06:25:49.283Z,410.97
2018-07-30T06:28:16.513Z,441.73
2018-07-30T06:30:43.734Z,437.63
2018-07-30T06:33:10.939Z,449.53
2018-07-30T06:35:38.131Z,413.80
2018-07-30T06:38:05.350Z,430.67
2018-07-30T06:40:32.543Z,403.97
2018-07-30T06:42:59.763Z,401.67
2018-07-30T06:45:26.954Z,390.87
2018-07-30T06:47:54.160Z,384.37
2018-07-30T06:50:21.345Z,344.67
2018-07-30T06:52:48.552Z,369.63
2018-07-30T06:55:15.735Z,359.90
2018-07-30T06:57:42.952Z,349.10
2018-07-30T07:00:10.576Z,363.53
2018-07-30T07:02:38.043Z,348.23
2018-07-30T07:05:06.029Z,354.27
2018-07-30T07:07:33.212Z,999.90
2018-07-30T07:10:00.480Z,999.90
2018-07-30T07:12:27.667Z,999.90
2018-07-30T07:14:54.855Z,999.90
2018-07-30T07:17:22.057Z,999.90
2018-07-30T07:19:49.239Z,999.90
2018-07-30T07:22:16.447Z,999.90
2018-07-30T07:24:43.644Z,999.90
2018-07-30T07:27:10.927Z,999.90
2018-07-30T07:29:38.080Z,999.90
2018-07-30T07:32:05.631Z,999.90
2018-07-30T07:34:32.938Z,993.90
2018-07-30T07:37:00.148Z,966.23
2018-07-30T07:39:27.351Z,912.33
2018-07-30T07:41:54.551Z,980.17
2018-07-30T07:44:21.743Z,999.90
2018-07-30T07:46:48.943Z,985.37
2018-07-30T07:49:16.186Z,999.90
2018-07-30T07:51:43.401Z,999.90
2018-07-30T07:54:10.711Z,999.90
2018-07-30T07:56:37.922Z,999.90
2018-07-30T07:59:05.191Z,999.90
2018-07-30T08:01:32.428Z,999.90
2018-07-30T08:03:59.702Z,999.90
2018-07-30T08:06:26.863Z,999.90
2018-07-30T08:08:54.109Z,999.90
2018-07-30T08:11:21.317Z,999.90
2018-07-30T08:13:48.524Z,999.90
2018-07-30T08:16:15.778Z,999.90
2018-07-30T08:18:42.949Z,999.90
2018-07-30T08:21:10.168Z,999.90
2018-07-30T08:23:37.375Z,999.90
2018-07-30T08:26:04.591Z,999.90
2018-07-30T08:28:31.788Z,999.90
2018-07-30T08:30:59.021Z,999.90
2018-07-30T08:33:26.231Z,999.90
2018-07-30T08:35:53.444Z,999.90
2018-07-30T08:38:20.658Z,999.90
2018-07-30T08:40:47.864Z,999.90
2018-07-30T08:43:15.141Z,999.90
2018-07-30T08:45:42.431Z,999.90
2018-07-30T08:48:09.976Z,999.90
2018-07-30T08:50:37.179Z,999.90
2018-07-30T08:53:04.412Z,999.90
2018-07-30T08:55:31.652Z,999.90
2018-07-30T08:57:58.867Z,999.90
2018-07-30T09:00:26.071Z,999.90
2018-07-30T09:02:53.321Z,999.90
2018-07-30T09:05:20.527Z,999.90
2018-07-30T09:07:47.731Z,999.90
2018-07-30T09:10:14.959Z,999.90
2018-07-30T09:12:42.261Z,999.90
2018-07-30T09:15:09.431Z,999.90
2018-07-30T09:17:36.639Z,999.90
2018-07-30T09:20:04.373Z,999.90
2018-07-30T09:22:31.567Z,999.90
2018-07-30T09:24:58.783Z,999.90
2018-07-30T09:27:25.984Z,991.13
2018-07-30T09:29:53.190Z,999.90
2018-07-30T09:32:20.428Z,999.90
2018-07-30T09:34:47.844Z,981.63
2018-07-30T09:37:15.079Z,962.10
2018-07-30T09:39:42.435Z,999.90
2018-07-30T09:42:09.524Z,976.13
2018-07-30T09:44:36.856Z,999.90
2018-07-30T09:47:04.021Z,999.90
2018-07-30T09:49:31.199Z,883.27
2018-07-30T09:51:58.426Z,894.35
2018-07-30T09:54:25.620Z,904.33
2018-07-30T09:56:52.842Z,883.50
2018-07-30T09:59:20.031Z,885.67
2018-07-30T10:01:47.219Z,896.63
2018-07-30T10:04:14.414Z,879.65
2018-07-30T10:06:41.606Z,897.45
2018-07-30T10:09:09.844Z,885.57
2018-07-30T10:11:37.486Z,897.03
2018-07-30T10:14:04.867Z,894.97
2018-07-30T10:16:32.062Z,886.17
2018-07-30T10:18:59.267Z,882.30
2018-07-30T10:21:26.460Z,859.98
2018-07-30T10:23:53.675Z,851.85
2018-07-30T10:26:20.895Z,877.05
2018-07-30T10:28:48.079Z,877.80
2018-07-30T10:31:15.294Z,882.98
2018-07-30T10:33:42.489Z,880.33
2018-07-30T10:36:09.698Z,915.53
2018-07-30T10:38:36.899Z,881.27
2018-07-30T10:41:04.092Z,887.12
2018-07-30T10:43:31.295Z,912.90
2018-07-30T10:45:58.490Z,861.73
2018-07-30T10:48:25.671Z,882.25
2018-07-30T10:50:53.643Z,865.55
2018-07-30T10:53:20.995Z,859.62
2018-07-30T10:55:48.200Z,847.87
2018-07-30T10:58:15.391Z,870.17
2018-07-30T11:00:42.663Z,837.13
2018-07-30T11:03:09.867Z,843.23
2018-07-30T11:05:37.088Z,846.97
2018-07-30T11:08:04.303Z,847.77
2018-07-30T11:10:31.503Z,834.33
2018-07-30T11:12:58.706Z,861.07
2018-07-30T11:15:25.892Z,858.23
2018-07-30T11:17:53.088Z,860.80
2018-07-30T11:20:20.296Z,852.77
2018-07-30T11:22:47.487Z,856.20
2018-07-30T11:25:14.737Z,847.55
2018-07-30T11:27:41.919Z,880.23
2018-07-30T11:30:09.171Z,865.77
2018-07-30T11:32:36.375Z,865.72
2018-07-30T11:35:03.652Z,875.07
2018-07-30T11:37:30.865Z,869.70
2018-07-30T11:39:58.078Z,873.60
2018-07-30T11:42:25.296Z,866.70
2018-07-30T11:44:52.575Z,883.80
2018-07-30T11:47:19.766Z,881.47
2018-07-30T11:49:46.966Z,858.17
2018-07-30T11:52:14.175Z,867.60
2018-07-30T11:54:41.377Z,852.17
2018-07-30T11:57:08.592Z,889.83
2018-07-30T11:59:35.802Z,872.98
2018-07-30T12:02:03.038Z,879.42
2018-07-30T12:04:30.235Z,851.42
2018-07-30T12:06:57.550Z,870.55
2018-07-30T12:09:24.739Z,869.28
2018-07-30T12:11:51.942Z,857.90
2018-07-30T12:14:19.118Z,869.28
2018-07-30T12:16:46.320Z,859.17
2018-07-30T12:19:13.515Z,860.30
2018-07-30T12:21:40.792Z,867.17
2018-07-30T12:24:07.989Z,866.10
2018-07-30T12:26:35.248Z,860.37
2018-07-30T12:29:02.479Z,873.70
2018-07-30T12:31:29.674Z,881.08
2018-07-30T12:33:56.871Z,843.77
2018-07-30T12:36:24.086Z,859.65
2018-07-30T12:38:51.295Z,843.40
2018-07-30T12:41:18.502Z,859.47
2018-07-30T12:43:45.683Z,840.80
2018-07-30T12:46:12.875Z,874.90
2018-07-30T12:48:40.064Z,862.30
2018-07-30T12:51:07.414Z,867.73
2018-07-30T12:53:34.606Z,872.55
2018-07-30T12:56:01.935Z,878.50
2018-07-30T12:58:29.215Z,877.50
2018-07-30T13:00:56.433Z,877.55
2018-07-30T13:03:23.644Z,861.70
2018-07-30T13:05:50.834Z,889.05
2018-07-30T13:08:18.059Z,890.67
2018-07-30T13:10:45.253Z,877.77
2018-07-30T13:13:12.535Z,853.20
2018-07-30T13:15:39.734Z,850.77
2018-07-30T13:18:07.351Z,825.07
2018-07-30T13:20:34.561Z,838.35
2018-07-30T13:23:01.748Z,861.60
2018-07-30T13:25:28.975Z,852.55
2018-07-30T13:27:56.175Z,850.60
2018-07-30T13:30:23.376Z,856.83
2018-07-30T13:32:50.810Z,866.53
2018-07-30T13:35:18.015Z,865.98
2018-07-30T13:37:45.330Z,850.80
2018-07-30T13:40:12.531Z,863.85
2018-07-30T13:42:39.799Z,859.45
2018-07-30T13:45:07.071Z,855.08
2018-07-30T13:47:34.427Z,898.17
2018-07-30T13:50:01.685Z,868.73
2018-07-30T13:52:28.895Z,843.22
2018-07-30T13:54:56.110Z,864.23
2018-07-30T13:57:23.332Z,845.05
2018-07-30T13:59:50.543Z,840.55
2018-07-30T14:02:17.726Z,869.35
2018-07-30T14:04:44.994Z,853.48
2018-07-30T14:07:12.184Z,850.35
2018-07-30T14:09:39.403Z,855.15
2018-07-30T14:12:06.616Z,837.83
2018-07-30T14:14:33.827Z,832.77
2018-07-30T14:17:01.028Z,845.73
2018-07-30T14:19:28.235Z,862.37
2018-07-30T14:21:55.443Z,850.02
2018-07-30T14:24:22.675Z,849.45
2018-07-30T14:26:49.867Z,832.00
2018-07-30T14:29:17.051Z,853.40
2018-07-30T14:31:44.251Z,842.73
2018-07-30T14:34:11.460Z,867.92
2018-07-30T14:36:38.677Z,814.00
2018-07-30T14:39:07.506Z,853.85
2018-07-30T14:41:34.719Z,843.85
2018-07-30T14:44:01.941Z,854.13
2018-07-30T14:46:29.172Z,868.97
2018-07-30T14:48:56.395Z,842.50
2018-07-30T14:51:23.627Z,863.20
2018-07-30T14:53:50.827Z,852.28
2018-07-30T14:56:18.068Z,853.40
2018-07-30T14:58:45.264Z,857.10
2018-07-30T15:01:12.482Z,839.87
2018-07-30T15:03:39.686Z,863.47
2018-07-30T15:06:06.907Z,840.70
2018-07-30T15:08:34.112Z,838.50
2018-07-30T15:11:01.315Z,837.67
2018-07-30T15:13:28.784Z,832.47
2018-07-30T15:15:55.990Z,850.23
2018-07-30T15:18:23.198Z,827.43
2018-07-30T15:20:50.391Z,836.33
2018-07-30T15:23:17.602Z,846.37
2018-07-30T15:25:44.826Z,853.57
2018-07-30T15:28:12.026Z,820.57
2018-07-30T15:30:39.260Z,854.27
2018-07-30T15:33:06.463Z,848.27
2018-07-30T15:35:33.650Z,839.30
2018-07-30T15:38:00.855Z,835.17
2018-07-30T15:40:28.077Z,824.67
2018-07-30T15:42:55.267Z,835.50
2018-07-30T15:45:22.470Z,844.13
2018-07-30T15:47:49.659Z,860.37
2018-07-30T15:50:16.847Z,831.73
2018-07-30T15:52:44.039Z,810.83
2018-07-30T15:55:11.266Z,817.90
2018-07-30T15:57:38.474Z,805.37
2018-07-30T16:00:06.625Z,818.97
2018-07-30T16:02:33.825Z,827.77
2018-07-30T16:07:28.200Z,811.70
2018-07-30T16:09:55.391Z,819.00
2018-07-30T16:12:22.607Z,820.40
2018-07-30T16:14:49.805Z,821.13
2018-07-30T16:17:16.982Z,814.37
2018-07-30T16:19:44.158Z,801.33
2018-07-30T16:22:11.343Z,794.83
2018-07-30T16:24:38.547Z,796.93
2018-07-30T16:27:05.968Z,793.87
2018-07-30T16:29:33.183Z,799.10
2018-07-30T16:32:00.416Z,809.80
2018-07-30T16:34:28.012Z,776.77
2018-07-30T16:36:55.203Z,765.30
2018-07-30T16:39:22.418Z,814.80
2018-07-30T16:41:49.610Z,788.60
2018-07-30T16:44:16.842Z,782.23
2018-07-30T16:46:44.088Z,812.50
2018-07-30T16:49:11.283Z,789.73
2018-07-30T16:51:38.478Z,791.83
2018-07-30T16:54:05.707Z,783.27
2018-07-30T16:56:32.915Z,795.80
2018-07-30T16:59:00.139Z,801.97
2018-07-30T17:01:27.356Z,789.53
2018-07-30T17:03:54.575Z,782.90
2018-07-30T17:06:21.772Z,795.77
2018-07-30T17:08:48.995Z,786.37
2018-07-30T17:11:16.223Z,783.27
2018-07-30T17:13:43.451Z,811.83
2018-07-30T17:16:10.747Z,779.63
2018-07-30T17:18:38.260Z,767.93
2018-07-30T17:21:05.718Z,753.10
2018-07-30T17:23:32.924Z,769.50
2018-07-30T17:26:00.124Z,778.53
2018-07-30T17:28:27.318Z,761.87
2018-07-30T17:30:54.511Z,760.73
2018-07-30T17:33:21.718Z,766.10
2018-07-30T17:35:48.910Z,756.53
2018-07-30T17:38:16.107Z,766.97
2018-07-30T17:40:43.295Z,720.87
2018-07-30T17:43:10.522Z,754.43
2018-07-30T17:45:37.960Z,738.40
2018-07-30T17:48:05.399Z,742.40
2018-07-30T17:50:32.823Z,740.07
2018-07-30T17:53:00.112Z,725.10
2018-07-30T17:55:27.299Z,712.60
2018-07-30T17:57:54.602Z,743.03
2018-07-30T18:00:21.854Z,699.40
2018-07-30T18:02:49.085Z,736.53
2018-07-30T18:05:18.392Z,699.40
2018-07-30T18:07:46.478Z,712.40
2018-07-30T18:10:13.703Z,662.17
2018-07-30T18:12:41.315Z,664.47
2018-07-30T18:15:08.632Z,649.90
2018-07-30T18:17:35.975Z,631.00
2018-07-30T18:20:03.311Z,649.87
2018-07-30T18:22:30.531Z,653.83
2018-07-30T18:24:57.828Z,634.33
2018-07-30T18:27:25.136Z,599.17
2018-07-30T18:29:52.348Z,597.33
2018-07-30T18:32:19.544Z,590.63
2018-07-30T18:34:46.842Z,599.07
2018-07-30T18:37:14.056Z,591.53
2018-07-30T18:39:41.313Z,569.23
2018-07-30T18:42:08.538Z,564.23
2018-07-30T18:44:35.774Z,566.03
2018-07-30T18:47:03.121Z,577.07
2018-07-30T18:49:30.336Z,571.87
2018-07-30T18:51:57.598Z,599.87
2018-07-30T18:54:24.918Z,551.30
2018-07-30T18:56:52.217Z,539.87
2018-07-30T18:59:19.387Z,542.90
2018-07-30T19:01:46.646Z,556.43
2018-07-30T19:04:14.022Z,535.77
2018-07-30T19:06:41.264Z,552.70
2018-07-30T19:09:09.043Z,567.73
2018-07-30T19:11:36.384Z,491.87
2018-07-30T19:14:03.600Z,537.40
2018-07-30T19:16:30.836Z,534.70
2018-07-30T19:18:58.151Z,513.03
2018-07-30T19:21:25.456Z,520.80
2018-07-30T19:23:52.692Z,512.37
2018-07-30T19:26:19.933Z,515.27
2018-07-30T19:28:47.133Z,528.87
2018-07-30T19:31:14.442Z,516.10
2018-07-30T19:33:41.635Z,505.83
2018-07-30T19:36:08.869Z,462.10
2018-07-30T19:38:36.220Z,473.70
2018-07-30T19:41:03.487Z,502.60
2018-07-30T19:43:30.903Z,490.30
2018-07-30T19:45:58.088Z,472.97
2018-07-30T19:48:25.332Z,479.30
2018-07-30T19:50:52.570Z,514.27
2018-07-30T19:53:19.787Z,481.90
2018-07-30T19:55:47.148Z,492.70
2018-07-30T19:58:14.692Z,469.43
2018-07-30T20:00:41.836Z,468.43
2018-07-30T20:03:10.168Z,485.50
2018-07-30T20:05:37.371Z,466.20
2018-07-30T20:08:04.657Z,450.80
2018-07-30T20:10:31.892Z,467.93
2018-07-30T20:12:59.239Z,475.40
2018-07-30T20:15:26.515Z,448.23
2018-07-30T20:17:53.917Z,472.93
2018-07-30T20:20:21.279Z,460.47
2018-07-30T20:22:48.601Z,459.13
2018-07-30T20:25:15.938Z,457.97
2018-07-30T20:27:43.531Z,429.30
2018-07-30T20:30:10.892Z,436.73
2018-07-30T20:32:38.113Z,438.40
2018-07-30T20:35:05.459Z,439.37
2018-07-30T20:37:32.768Z,443.50
2018-07-30T20:40:00.057Z,445.37
2018-07-30T20:42:27.284Z,450.03
2018-07-30T20:44:54.570Z,474.33
2018-07-30T20:47:21.854Z,466.63
2018-07-30T20:49:49.107Z,472.07
2018-07-30T20:52:16.445Z,438.63
2018-07-30T20:54:43.751Z,452.27
2018-07-30T20:57:11.134Z,477.43
2018-07-30T20:59:38.440Z,434.10
2018-07-30T21:02:06.444Z,466.27
2018-07-30T21:04:33.722Z,440.57
2018-07-30T21:07:00.860Z,455.30
2018-07-30T21:09:28.047Z,416.77
2018-07-30T21:11:55.240Z,427.27
2018-07-30T21:14:22.532Z,460.83
2018-07-30T21:16:49.734Z,437.30
2018-07-30T21:19:16.943Z,436.63
2018-07-30T21:21:44.147Z,424.30
2018-07-30T21:24:11.359Z,419.03
2018-07-30T21:26:38.576Z,461.50
2018-07-30T21:29:05.755Z,438.50
2018-07-30T21:31:32.968Z,419.63
2018-07-30T21:34:00.166Z,453.93
2018-07-30T21:36:27.370Z,433.83
2018-07-30T21:38:54.592Z,421.20
2018-07-30T21:41:21.799Z,432.20
2018-07-30T21:43:48.998Z,428.60
2018-07-30T21:46:16.174Z,458.93
2018-07-30T21:48:43.368Z,438.77
2018-07-30T21:51:10.572Z,427.97
2018-07-30T21:53:37.775Z,423.87
2018-07-30T21:56:05.379Z,459.10
2018-07-30T21:58:32.577Z,454.43
2018-07-30T22:00:59.814Z,450.23
2018-07-30T22:03:27.198Z,422.90
2018-07-30T22:05:56.839Z,425.23
2018-07-30T22:08:24.175Z,441.17
2018-07-30T22:10:51.387Z,418.10
2018-07-30T22:13:18.620Z,412.60
2018-07-30T22:15:46.034Z,417.23
2018-07-30T22:18:13.304Z,439.97
2018-07-30T22:20:40.519Z,418.37
2018-07-30T22:23:07.789Z,411.53
2018-07-30T22:25:34.995Z,424.87
2018-07-30T22:28:02.195Z,420.50
2018-07-30T22:30:29.403Z,437.93
2018-07-30T22:32:56.607Z,459.20
2018-07-30T22:35:23.825Z,426.20
2018-07-30T22:37:51.027Z,422.57
2018-07-30T22:40:18.227Z,453.07
2018-07-30T22:42:45.418Z,416.00
2018-07-30T22:45:12.635Z,415.87
2018-07-30T22:47:39.929Z,419.47
2018-07-30T22:50:07.136Z,432.37
2018-07-30T22:52:34.333Z,442.07
2018-07-30T22:55:01.695Z,433.73
2018-07-30T22:57:28.879Z,450.50
2018-07-30T22:59:56.092Z,404.83
2018-07-30T23:02:23.304Z,431.03
2018-07-30T23:04:50.491Z,429.27
2018-07-30T23:07:17.690Z,401.23
2018-07-30T23:09:44.895Z,427.30
2018-07-30T23:12:12.079Z,408.53
2018-07-30T23:14:39.280Z,424.13
2018-07-30T23:17:07.143Z,417.70
2018-07-30T23:19:34.379Z,403.83
2018-07-30T23:22:01.571Z,419.43
2018-07-30T23:24:28.743Z,400.90
2018-07-30T23:26:55.951Z,418.80
2018-07-30T23:29:23.159Z,398.67
2018-07-30T23:31:50.377Z,430.87
2018-07-30T23:34:17.559Z,437.97
2018-07-30T23:36:44.803Z,422.03
2018-07-30T23:39:11.959Z,419.80
2018-07-30T23:41:39.319Z,425.17
2018-07-30T23:44:06.698Z,427.53
2018-07-30T23:46:33.912Z,416.70
2018-07-30T23:49:01.143Z,403.03
2018-07-30T23:51:28.575Z,397.60
2018-07-30T23:53:55.844Z,415.43
2018-07-30T23:56:23.014Z,394.93
2018-07-30T23:58:50.211Z,403.63
